Time;durP1;ratioP1;P1;durP2;ratioP2;P2;SDS_P1;SDS_P2;PMS_P1;PMS_P2;Temp;Humidity;BMP_temperature;BMP_pressure;BME280_temperature;BME280_humidity;BME280_pressure;Samples;Min_cycle;Max_cycle;Signal;HPM_P1;HPM_P2
2022/09/06 00:01:36;;;;;;;5.55;3.65;;;;;;;18.83;78.19;101453.34;5022606;28;20033;-69
2022/09/06 00:04:01;;;;;;;6.30;3.80;;;;;;;18.85;78.13;101473.38;5008005;28;20084;-68
2022/09/06 00:06:27;;;;;;;7.28;3.72;;;;;;;18.89;77.84;101492.38;5027506;28;20171;-69
2022/09/06 00:08:52;;;;;;;8.43;3.97;;;;;;;18.75;80.35;101486.31;5026138;28;20123;-68
2022/09/06 00:11:17;;;;;;;5.93;4.05;;;;;;;18.68;78.77;101514.56;5025908;28;20175;-69
2022/09/06 00:13:44;;;;;;;10.60;4.93;;;;;;;18.67;81.12;101570.72;5026597;28;20057;-68
2022/09/06 00:16:19;;;;;;;7.95;5.40;;;;;;;18.51;81.30;101574.94;5025456;28;20485;-67
2022/09/06 00:18:45;;;;;;;5.47;4.10;;;;;;;18.35;81.59;101583.78;5006427;28;20053;-68
2022/09/06 00:21:18;;;;;;;8.10;5.75;;;;;;;18.32;82.79;101614.34;5026109;28;20037;-68
2022/09/06 00:23:44;;;;;;;10.73;5.13;;;;;;;18.28;81.61;101609.31;5025967;28;20116;-67
2022/09/06 00:26:09;;;;;;;7.70;4.80;;;;;;;18.25;81.22;101609.56;5025110;28;20171;-67
2022/09/06 00:28:34;;;;;;;8.43;5.32;;;;;;;18.22;82.43;101620.88;5026468;28;20041;-67
2022/09/06 00:31:08;;;;;;;8.18;5.28;;;;;;;18.24;81.51;101613.34;5026305;28;20025;-71
2022/09/06 00:33:33;;;;;;;7.68;5.43;;;;;;;18.16;82.16;101608.53;5025630;28;20123;-70
2022/09/06 00:36:00;;;;;;;6.07;5.28;;;;;;;18.07;82.78;101614.88;5009898;28;20432;-67
2022/09/06 00:38:25;;;;;;;6.80;5.65;;;;;;;18.14;82.34;101612.44;5006525;28;20041;-69
2022/09/06 00:40:50;;;;;;;7.55;5.38;;;;;;;18.18;81.56;101611.13;5024831;28;20078;-67
2022/09/06 00:43:16;;;;;;;9.55;6.25;;;;;;;18.17;82.87;101609.41;5021660;28;20034;-67
2022/09/06 00:45:41;;;;;;;11.13;6.80;;;;;;;18.06;84.10;101596.63;5006738;28;20049;-68
2022/09/06 00:48:06;;;;;;;7.95;5.82;;;;;;;18.01;82.52;101586.03;5023070;28;20038;-67
2022/09/06 00:50:32;;;;;;;8.75;5.93;;;;;;;18.04;82.35;101591.25;5025220;28;20632;-67
2022/09/06 00:52:58;;;;;;;6.07;4.97;;;;;;;18.13;82.13;101583.16;5038300;28;20499;-69
2022/09/06 00:55:24;;;;;;;6.95;5.75;;;;;;;18.03;84.64;101575.75;5045460;28;20040;-67
2022/09/06 00:57:50;;;;;;;8.95;5.68;;;;;;;18.02;83.15;101576.75;5028567;28;20037;-67
2022/09/06 01:00:17;;;;;;;6.65;5.78;;;;;;;18.06;82.94;101563.59;5018538;28;20034;-68
2022/09/06 01:02:43;;;;;;;8.88;6.03;;;;;;;18.00;84.20;101562.28;5012021;28;20541;-67
2022/09/06 01:05:10;;;;;;;7.70;5.78;;;;;;;17.96;83.29;101558.06;5024306;28;20128;-67
2022/09/06 01:07:54;;;;;;;8.38;6.07;;;;;;;17.99;83.61;101556.91;5006468;28;20347;-67
2022/09/06 01:10:31;;;;;;;7.32;6.13;;;;;;;18.06;83.13;101545.19;5005609;28;20045;-66
2022/09/06 01:13:34;;;;;;;8.60;6.00;;;;;;;18.11;81.94;101550.25;5009656;28;20041;-67
2022/09/06 01:16:15;;;;;;;9.73;6.25;;;;;;;18.15;81.59;101540.69;5023927;28;20038;-67
2022/09/06 01:18:52;;;;;;;7.80;5.82;;;;;;;18.19;82.10;101544.91;5005442;28;20386;-69
2022/09/06 01:21:28;;;;;;;7.15;5.53;;;;;;;18.22;81.92;101539.09;5025902;28;20485;-67
2022/09/06 01:24:14;;;;;;;7.03;5.72;;;;;;;18.22;82.09;101521.69;5028702;28;20101;-67
2022/09/06 01:27:11;;;;;;;9.30;7.05;;;;;;;17.97;84.34;101501.13;5039517;28;20030;-67
2022/09/06 01:29:48;;;;;;;8.82;6.93;;;;;;;17.77;85.89;101475.44;5025668;28;20072;-68
2022/09/06 01:32:25;;;;;;;8.43;6.82;;;;;;;17.67;86.74;101449.72;5033316;28;20045;-68
2022/09/06 01:35:09;;;;;;;10.05;7.45;;;;;;;17.58;87.64;101419.34;5024727;28;20033;-67
2022/09/06 01:37:35;;;;;;;9.80;6.85;;;;;;;17.58;86.94;101408.31;5026356;28;20107;-67
2022/09/06 01:40:00;;;;;;;9.15;6.47;;;;;;;17.59;87.20;101407.31;5024825;28;20053;-68
2022/09/06 01:42:30;;;;;;;11.90;7.45;;;;;;;17.57;88.14;101386.44;5026473;28;20469;-67
2022/09/06 01:45:01;;;;;;;10.43;6.85;;;;;;;17.53;87.83;101390.47;5025657;28;20040;-68
2022/09/06 01:47:38;;;;;;;7.22;6.45;;;;;;;17.53;87.27;101391.38;5025188;28;20045;-68
2022/09/06 01:50:41;;;;;;;9.20;6.72;;;;;;;17.57;86.71;101394.69;5024550;28;20060;-67
2022/09/06 01:53:09;;;;;;;;;;;;;;;17.66;83.71;101380.06;5026025;28;20069;-67
2022/09/06 01:56:13;;;;;;;9.38;6.53;;;;;;;17.62;85.81;101364.00;5008208;28;19914;-67
2022/09/06 01:59:17;;;;;;;7.25;6.50;;;;;;;17.60;85.46;101364.16;5022384;28;20038;-67
2022/09/06 02:01:49;;;;;;;12.98;7.40;;;;;;;17.62;85.95;101372.25;5015023;28;20037;-66
2022/09/06 02:04:25;;;;;;;9.93;7.10;;;;;;;17.64;86.15;101373.00;5025657;28;20060;-67
2022/09/06 02:07:01;;;;;;;8.40;6.32;;;;;;;17.70;84.66;101365.00;5009534;28;20400;-66
2022/09/06 02:09:33;;;;;;;9.55;6.20;;;;;;;17.70;85.56;101356.75;5024351;28;20481;-66
2022/09/06 02:12:02;;;;;;;7.38;6.40;;;;;;;17.71;85.01;101360.38;5028163;28;20045;-66
2022/09/06 02:14:34;;;;;;;8.07;6.35;;;;;;;17.75;84.73;101398.50;5029624;28;20021;-67
2022/09/06 02:17:02;;;;;;;9.25;6.90;;;;;;;17.79;85.45;101413.72;5011890;28;20136;-68
2022/09/06 02:19:42;;;;;;;10.07;6.53;;;;;;;17.68;86.63;101368.94;5013697;28;20101;-66
2022/09/06 02:22:11;;;;;;;11.63;6.25;;;;;;;17.62;86.16;101397.88;5028998;28;20033;-67
2022/09/06 02:24:39;;;;;;;9.45;6.85;;;;;;;17.59;87.01;101392.69;5028080;28;20041;-67
2022/09/06 02:27:05;;;;;;;6.82;6.13;;;;;;;17.51;86.25;101401.63;5028235;28;20065;-67
2022/09/06 02:29:32;;;;;;;7.43;5.60;;;;;;;17.55;85.16;101407.72;5029124;28;20044;-69
2022/09/06 02:32:03;;;;;;;6.80;6.10;;;;;;;17.64;84.67;101417.88;5027741;28;20072;-67
2022/09/06 02:34:29;;;;;;;10.38;6.22;;;;;;;17.65;85.07;101403.09;5024562;28;20040;-66
2022/09/06 02:36:55;;;;;;;6.55;5.90;;;;;;;17.59;84.84;101404.56;5008965;28;20128;-66
2022/09/06 02:39:20;;;;;;;7.65;6.25;;;;;;;17.59;84.31;101395.44;5023155;28;20126;-68
2022/09/06 02:41:47;;;;;;;10.77;6.75;;;;;;;17.59;84.21;101392.69;5013859;28;20159;-67
2022/09/06 02:44:12;;;;;;;6.72;5.88;;;;;;;17.57;83.91;101403.81;5028469;28;20497;-67
2022/09/06 02:46:38;;;;;;;11.02;6.22;;;;;;;17.56;83.98;101380.06;5029443;28;20067;-67
2022/09/06 02:49:03;;;;;;;7.55;6.75;;;;;;;17.50;85.70;101390.78;5045740;28;20064;-69
2022/09/06 02:51:29;;;;;;;6.68;5.97;;;;;;;17.45;84.46;101382.09;5029342;28;20091;-67
2022/09/06 02:53:55;;;;;;;6.50;5.80;;;;;;;17.42;83.76;101388.75;5047258;28;20053;-66
2022/09/06 02:56:21;;;;;;;6.05;5.43;;;;;;;17.41;83.75;101383.38;5048244;28;20219;-67
2022/09/06 02:58:47;;;;;;;9.38;6.20;;;;;;;17.36;84.12;101385.69;5038909;28;20051;-67
2022/09/06 03:01:12;;;;;;;7.90;6.40;;;;;;;17.30;83.96;101378.88;5027484;28;20098;-66
2022/09/06 03:03:37;;;;;;;7.40;6.07;;;;;;;17.31;84.21;101388.88;5036715;28;20071;-67
2022/09/06 03:06:03;;;;;;;7.03;5.80;;;;;;;17.34;84.05;101383.06;5013424;28;20121;-67
2022/09/06 03:08:32;;;;;;;8.23;6.07;;;;;;;17.33;84.10;101390.44;5008379;28;20049;-66
2022/09/06 03:10:58;;;;;;;9.32;6.47;;;;;;;17.36;84.15;101389.31;5026426;28;20029;-66
2022/09/06 03:13:25;;;;;;;6.95;6.15;;;;;;;17.37;84.48;101391.06;5027871;28;20116;-68
2022/09/06 03:15:53;;;;;;;8.00;6.30;;;;;;;17.36;84.44;101378.31;5027464;28;20076;-67
2022/09/06 03:18:18;;;;;;;9.73;7.18;;;;;;;17.32;85.13;101382.34;5009012;28;20064;-67
2022/09/06 03:20:44;;;;;;;8.88;6.32;;;;;;;17.33;84.12;101378.59;5009183;28;20490;-66
2022/09/06 03:23:09;;;;;;;8.68;5.72;;;;;;;17.37;83.87;101380.03;5012848;28;20030;-67
2022/09/06 03:25:35;;;;;;;7.75;5.78;;;;;;;17.38;83.31;101389.16;5007223;28;20061;-67
2022/09/06 03:28:01;;;;;;;12.05;6.40;;;;;;;17.35;83.15;101376.59;5012735;28;20041;-69
2022/09/06 03:30:26;;;;;;;8.77;5.40;;;;;;;17.32;82.66;101385.09;5028246;28;20053;-67
2022/09/06 03:32:52;;;;;;;10.55;5.70;;;;;;;17.30;82.47;101381.66;5026427;28;20061;-67
2022/09/06 03:35:18;;;;;;;7.20;5.43;;;;;;;17.25;81.96;101387.56;5024970;28;20040;-67
2022/09/06 03:37:43;;;;;;;6.88;5.00;;;;;;;17.21;82.48;101388.84;5027557;28;20136;-67
2022/09/06 03:40:09;;;;;;;10.48;6.00;;;;;;;17.15;82.65;101394.91;5026631;28;20034;-67
2022/09/06 03:42:34;;;;;;;9.32;6.38;;;;;;;17.10;82.62;101386.19;5021637;28;20038;-67
2022/09/06 03:45:00;;;;;;;9.32;6.32;;;;;;;17.03;83.21;101388.66;5008274;28;20045;-68
2022/09/06 03:47:25;;;;;;;9.32;6.25;;;;;;;16.96;83.63;101384.72;5017943;28;20037;-68
2022/09/06 03:49:51;;;;;;;10.80;6.57;;;;;;;16.93;83.44;101393.25;5026381;28;20076;-67
2022/09/06 03:52:16;;;;;;;7.93;5.85;;;;;;;16.90;82.71;101385.28;5027350;28;20040;-67
2022/09/06 03:54:42;;;;;;;9.73;5.00;;;;;;;16.92;82.75;101391.50;5026172;28;20037;-67
2022/09/06 03:57:07;;;;;;;7.65;5.45;;;;;;;16.89;82.49;101400.03;5027279;28;20445;-67
2022/09/06 03:59:33;;;;;;;7.75;5.40;;;;;;;16.85;82.87;101397.69;5026699;28;20073;-67
2022/09/06 04:01:58;;;;;;;12.68;6.43;;;;;;;16.77;83.37;101399.25;5026533;28;20171;-67
2022/09/06 04:04:24;;;;;;;7.13;5.43;;;;;;;16.75;82.70;101404.03;5023241;28;20057;-67
2022/09/06 04:06:49;;;;;;;7.55;5.38;;;;;;;16.71;82.07;101407.16;5007378;28;20427;-69
2022/09/06 04:09:14;;;;;;;9.73;6.30;;;;;;;16.67;82.82;101401.06;5006494;28;20072;-68
2022/09/06 04:11:41;;;;;;;9.45;5.70;;;;;;;16.65;82.03;101404.97;5007083;28;20034;-67
2022/09/06 04:14:06;;;;;;;9.93;6.07;;;;;;;16.61;82.30;101400.75;5005419;28;20064;-67
2022/09/06 04:16:32;;;;;;;9.55;5.93;;;;;;;16.59;82.28;101406.34;5011212;28;20041;-69
2022/09/06 04:18:59;;;;;;;7.78;5.90;;;;;;;16.55;82.50;101404.88;5028496;28;20096;-70
2022/09/06 04:21:25;;;;;;;8.70;6.45;;;;;;;16.48;82.89;101415.56;5008171;28;20512;-67
2022/09/06 04:23:51;;;;;;;8.45;6.03;;;;;;;16.46;82.47;101414.81;5009359;28;20049;-67
2022/09/06 04:26:16;;;;;;;10.63;6.05;;;;;;;16.43;82.63;101414.22;5026798;28;20458;-67
2022/09/06 04:28:41;;;;;;;9.82;5.97;;;;;;;16.40;82.16;101414.47;5024962;28;20438;-69
2022/09/06 04:31:07;;;;;;;10.82;5.80;;;;;;;16.36;82.52;101413.88;5010295;28;20017;-67
2022/09/06 04:33:34;;;;;;;7.22;6.43;;;;;;;16.29;82.77;101421.78;5007062;28;20049;-67
2022/09/06 04:36:01;;;;;;;7.05;5.43;;;;;;;16.29;82.71;101418.19;5023461;28;20026;-66
2022/09/06 04:38:28;;;;;;;10.82;5.88;;;;;;;16.28;82.79;101424.69;5024845;28;20029;-67
2022/09/06 04:40:56;;;;;;;7.90;5.25;;;;;;;16.20;82.59;101414.34;5026246;28;20064;-67
2022/09/06 04:43:22;;;;;;;11.90;5.65;;;;;;;16.17;82.18;101414.59;5032183;28;20029;-69
2022/09/06 04:45:47;;;;;;;10.52;6.22;;;;;;;16.16;82.38;101426.59;5030438;28;20463;-67
2022/09/06 04:48:12;;;;;;;11.40;6.53;;;;;;;16.16;82.33;101418.38;5023365;28;20520;-68
2022/09/06 04:50:38;;;;;;;9.98;6.45;;;;;;;16.18;83.19;101420.97;5024369;28;20480;-67
2022/09/06 04:53:04;;;;;;;11.00;5.47;;;;;;;16.14;82.91;101420.38;5025296;28;20037;-67
2022/09/06 04:55:30;;;;;;;7.38;5.00;;;;;;;16.10;82.52;101420.78;5026262;28;20102;-67
2022/09/06 04:58:00;;;;;;;10.93;6.10;;;;;;;16.05;82.91;101418.44;5027884;28;20477;-68
2022/09/06 05:00:26;;;;;;;11.23;5.75;;;;;;;16.02;82.74;101419.56;5025719;28;20473;-67
2022/09/06 05:02:52;;;;;;;9.73;6.13;;;;;;;15.97;82.81;101421.84;5022970;28;20485;-67
2022/09/06 05:05:17;;;;;;;10.43;4.82;;;;;;;15.95;82.09;101421.13;5023766;28;20044;-68
2022/09/06 05:07:43;;;;;;;13.45;6.30;;;;;;;15.91;82.96;101425.13;5025128;28;20037;-67
2022/09/06 05:10:08;;;;;;;11.82;5.72;;;;;;;15.89;83.46;101420.75;5024854;28;20041;-68
2022/09/06 05:12:33;;;;;;;10.27;6.20;;;;;;;15.84;83.54;101420.28;5026495;28;20041;-68
2022/09/06 05:14:59;;;;;;;9.55;6.72;;;;;;;15.80;83.12;101406.81;5026623;28;20473;-70
2022/09/06 05:17:24;;;;;;;9.48;6.57;;;;;;;15.74;83.56;101417.44;5017227;28;20117;-68
2022/09/06 05:19:50;;;;;;;8.35;6.15;;;;;;;15.68;84.98;101417.97;5025144;28;20536;-67
2022/09/06 05:22:15;;;;;;;8.98;7.07;;;;;;;15.66;85.01;101423.56;5025717;28;20457;-67
2022/09/06 05:24:41;;;;;;;7.53;6.35;;;;;;;15.63;84.31;101420.22;5026165;28;20079;-67
2022/09/06 05:27:06;;;;;;;12.60;6.97;;;;;;;15.60;84.90;101421.31;5025990;28;20033;-67
2022/09/06 05:29:32;;;;;;;8.95;6.32;;;;;;;15.60;84.71;101425.94;5024318;28;20099;-68
2022/09/06 05:31:57;;;;;;;9.52;6.50;;;;;;;15.61;84.75;101420.31;5021354;28;20045;-67
2022/09/06 05:34:23;;;;;;;9.30;6.35;;;;;;;15.65;84.17;101430.06;5010683;28;20061;-67
2022/09/06 05:36:48;;;;;;;8.18;6.40;;;;;;;15.69;84.25;101436.16;5029214;28;20033;-67
2022/09/06 05:39:13;;;;;;;9.73;6.30;;;;;;;15.69;85.27;101426.06;5028441;28;20525;-68
2022/09/06 05:41:39;;;;;;;8.15;5.28;;;;;;;15.70;84.12;101424.19;5029267;28;20101;-68
2022/09/06 05:44:04;;;;;;;6.50;5.57;;;;;;;15.72;83.47;101430.44;5028228;28;20565;-69
2022/09/06 05:46:30;;;;;;;8.18;5.93;;;;;;;15.74;83.39;101428.41;5029263;28;20067;-68
2022/09/06 05:49:00;;;;;;;6.95;6.25;;;;;;;15.73;84.21;101429.44;5028431;28;20091;-68
2022/09/06 05:51:25;;;;;;;7.25;5.00;;;;;;;15.76;83.33;101430.03;5030276;28;20063;-67
2022/09/06 05:53:51;;;;;;;8.32;6.40;;;;;;;15.76;84.17;101430.03;5010272;28;20026;-67
2022/09/06 05:56:17;;;;;;;9.57;7.18;;;;;;;15.76;84.68;101427.31;5025086;28;20033;-67
2022/09/06 05:58:43;;;;;;;11.23;6.75;;;;;;;15.80;83.96;101436.13;5041730;28;20045;-68
2022/09/06 06:01:25;;;;;;;10.43;8.02;;;;;;;15.81;83.99;101426.91;5029839;28;20021;-69
2022/09/06 06:03:53;;;;;;;12.23;8.00;;;;;;;15.82;84.50;101436.88;5027250;28;20049;-68
2022/09/06 06:06:20;;;;;;;13.60;7.70;;;;;;;15.84;84.91;101431.25;5029855;28;20481;-67
2022/09/06 06:08:46;;;;;;;10.13;7.95;;;;;;;15.88;84.08;101425.38;5026637;28;20029;-68
2022/09/06 06:11:12;;;;;;;10.80;7.03;;;;;;;15.92;84.24;101432.34;5028911;28;20385;-67
2022/09/06 06:13:38;;;;;;;13.20;8.32;;;;;;;15.97;85.60;101435.56;5030044;28;20043;-67
2022/09/06 06:16:10;;;;;;;10.95;8.23;;;;;;;15.99;85.01;101432.66;5030125;28;20032;-67
2022/09/06 06:18:36;;;;;;;12.80;9.45;;;;;;;16.02;85.42;101433.28;5028405;28;20041;-67
2022/09/06 06:21:10;;;;;;;12.80;7.45;;;;;;;16.06;84.20;101428.41;5030526;28;20060;-70
2022/09/06 06:23:36;;;;;;;12.45;8.18;;;;;;;16.10;84.43;101429.88;5027737;28;20044;-69
2022/09/06 06:26:02;;;;;;;12.85;7.75;;;;;;;16.15;84.41;101432.25;5025849;28;20030;-70
2022/09/06 06:28:27;;;;;;;13.45;9.88;;;;;;;16.21;86.49;101423.47;5011093;28;20088;-68
2022/09/06 06:30:53;;;;;;;13.30;8.77;;;;;;;16.25;85.25;101419.44;5029384;28;20453;-67
2022/09/06 06:33:19;;;;;;;12.38;8.90;;;;;;;16.26;85.90;101424.78;5027889;28;20470;-68
2022/09/06 06:36:05;;;;;;;13.15;9.75;;;;;;;16.32;85.95;101421.53;5016816;28;20030;-67
2022/09/06 06:38:38;;;;;;;14.27;9.88;;;;;;;16.36;87.04;101413.88;5027831;28;20043;-67
2022/09/06 06:41:06;;;;;;;14.05;8.50;;;;;;;16.41;85.92;101408.84;5029684;28;20496;-68
2022/09/06 06:43:35;;;;;;;13.50;9.32;;;;;;;16.47;86.28;101419.31;5029890;28;20033;-67
2022/09/06 06:46:22;;;;;;;12.57;8.68;;;;;;;16.53;85.46;101415.16;5028929;28;20037;-68
2022/09/06 06:48:47;;;;;;;10.55;8.95;;;;;;;16.58;86.33;101412.84;5028533;28;20333;-68
2022/09/06 06:51:16;;;;;;;13.90;11.02;;;;;;;16.63;88.22;101418.81;5022382;28;20025;-68
2022/09/06 06:53:43;;;;;;;16.52;12.10;;;;;;;16.65;89.49;101421.44;5028938;28;20037;-68
2022/09/06 06:56:21;;;;;;;15.77;11.82;;;;;;;16.70;89.51;101422.75;5029142;28;20680;-68
2022/09/06 06:58:49;;;;;;;19.92;11.35;;;;;;;16.74;89.84;101424.28;5029120;28;20041;-68
2022/09/06 07:01:15;;;;;;;14.43;9.85;;;;;;;16.79;88.49;101421.97;5028672;28;20041;-68
2022/09/06 07:03:41;;;;;;;16.58;12.13;;;;;;;16.86;90.95;101427.78;5027734;28;20556;-69
2022/09/06 07:06:07;;;;;;;17.30;13.45;;;;;;;16.91;91.84;101424.63;5028921;28;20135;-68
2022/09/06 07:08:32;;;;;;;14.57;10.88;;;;;;;16.93;89.48;101417.13;5028825;28;20065;-69
2022/09/06 07:10:58;;;;;;;16.75;12.35;;;;;;;16.99;91.76;101405.56;5028575;28;20138;-67
2022/09/06 07:13:23;;;;;;;13.10;10.98;;;;;;;17.06;91.40;101399.34;5015608;28;20114;-67
2022/09/06 07:15:49;;;;;;;16.80;10.38;;;;;;;17.09;89.76;101398.22;5026081;28;20057;-68
2022/09/06 07:18:16;;;;;;;14.68;9.23;;;;;;;17.12;88.41;101408.94;5025799;28;20429;-70
2022/09/06 07:20:41;;;;;;;13.18;9.90;;;;;;;17.19;89.90;101407.34;5023429;28;20034;-68
2022/09/06 07:23:07;;;;;;;14.88;10.65;;;;;;;17.27;90.63;101410.28;5023034;28;20091;-67
2022/09/06 07:25:33;;;;;;;12.95;8.60;;;;;;;17.31;87.96;101413.63;5027831;28;20044;-69
2022/09/06 07:28:02;;;;;;;17.83;10.77;;;;;;;17.40;91.43;101418.28;5029165;28;20469;-67
2022/09/06 07:30:29;;;;;;;15.80;10.65;;;;;;;17.46;90.46;101417.72;5029596;28;20504;-67
2022/09/06 07:32:55;;;;;;;12.18;9.43;;;;;;;17.56;89.66;101409.47;5027912;28;20361;-67
2022/09/06 07:35:20;;;;;;;13.18;9.20;;;;;;;17.63;89.32;101407.03;5027862;28;20044;-67
2022/09/06 07:37:57;;;;;;;14.05;9.32;;;;;;;17.70;89.60;101409.03;5028953;28;20338;-66
2022/09/06 07:40:26;;;;;;;16.63;8.63;;;;;;;17.77;88.27;101412.16;5027951;28;20352;-68
2022/09/06 07:42:55;;;;;;;10.88;7.82;;;;;;;17.83;87.83;101415.19;5028311;28;20497;-68
2022/09/06 07:45:20;;;;;;;12.55;7.82;;;;;;;17.96;87.82;101412.16;5028868;28;20060;-68
2022/09/06 07:47:53;;;;;;;14.70;8.02;;;;;;;18.16;86.69;101414.88;5026226;28;20477;-68
2022/09/06 07:50:18;;;;;;;9.68;7.53;;;;;;;18.33;86.07;101422.41;5027583;28;20045;-68
2022/09/06 07:52:43;;;;;;;11.23;7.25;;;;;;;18.40;85.56;101409.75;5028608;28;20042;-68
2022/09/06 07:55:09;;;;;;;11.32;7.55;;;;;;;18.51;87.19;101417.88;5027812;28;20052;-68
2022/09/06 07:57:34;;;;;;;15.00;7.40;;;;;;;18.58;86.35;101413.50;5027849;28;20730;-67
2022/09/06 08:00:00;;;;;;;11.43;6.90;;;;;;;18.63;85.79;101412.19;5029133;28;20405;-67
2022/09/06 08:02:25;;;;;;;9.85;6.20;;;;;;;18.68;85.43;101398.81;5019360;28;20037;-68
2022/09/06 08:04:50;;;;;;;11.27;7.10;;;;;;;18.73;86.09;101397.38;5016761;28;20075;-68
2022/09/06 08:07:16;;;;;;;8.85;5.50;;;;;;;18.85;84.63;101398.06;5048204;28;20029;-68
2022/09/06 08:09:41;;;;;;;10.85;5.82;;;;;;;18.97;85.05;101393.19;5047405;28;20523;-67
2022/09/06 08:12:07;;;;;;;8.07;5.68;;;;;;;19.10;85.20;101391.81;5036581;28;20491;-67
2022/09/06 08:14:32;;;;;;;13.77;5.07;;;;;;;19.21;83.97;101392.63;5026965;28;20544;-70
2022/09/06 08:16:58;;;;;;;9.70;5.88;;;;;;;19.34;83.32;101394.00;5027694;28;20037;-68
2022/09/06 08:19:23;;;;;;;5.93;5.32;;;;;;;19.47;83.69;101390.03;5027121;28;20041;-67
2022/09/06 08:21:49;;;;;;;6.53;4.85;;;;;;;19.58;83.61;101395.31;5026297;28;20123;-67
2022/09/06 08:24:14;;;;;;;9.38;5.25;;;;;;;19.73;85.78;101393.78;5026835;28;20025;-68
2022/09/06 08:26:41;;;;;;;10.18;4.40;;;;;;;19.91;79.92;101399.31;5028300;28;20049;-69
2022/09/06 08:29:08;;;;;;;6.00;3.35;;;;;;;20.19;77.83;101394.56;5027881;28;20037;-67
2022/09/06 08:31:36;;;;;;;6.93;3.40;;;;;;;20.47;76.79;101394.38;5040630;28;20448;-69
2022/09/06 08:34:02;;;;;;;6.22;3.10;;;;;;;20.66;77.08;101396.09;5027651;28;20048;-68
2022/09/06 08:36:29;;;;;;;7.07;2.78;;;;;;;20.75;74.80;101407.06;5025704;28;20080;-68
2022/09/06 08:38:59;;;;;;;4.35;2.95;;;;;;;20.82;73.70;101408.13;5025744;28;20472;-68
2022/09/06 08:41:26;;;;;;;7.50;3.22;;;;;;;20.92;73.89;101410.78;5008179;28;20074;-69
2022/09/06 08:44:02;;;;;;;6.18;2.90;;;;;;;20.98;73.78;101396.28;5023059;28;20514;-68
2022/09/06 08:46:36;;;;;;;4.25;2.60;;;;;;;21.01;70.99;101400.63;5025410;28;20484;-68
2022/09/06 08:49:02;;;;;;;4.40;2.85;;;;;;;20.98;73.24;101400.94;5016996;28;20053;-69
2022/09/06 08:51:54;;;;;;;5.40;2.80;;;;;;;21.04;74.26;101397.53;5025908;28;20076;-68
2022/09/06 08:54:41;;;;;;;5.65;2.60;;;;;;;21.12;71.08;101390.16;5026845;28;20045;-68
2022/09/06 08:57:39;;;;;;;3.30;2.70;;;;;;;21.33;72.66;101392.47;5026871;28;20091;-67
2022/09/06 09:00:08;;;;;;;6.80;2.90;;;;;;;21.50;70.16;101398.09;5007842;28;20037;-68
2022/09/06 09:03:02;;;;;;;6.32;3.00;;;;;;;21.72;70.92;101400.19;5017840;28;20030;-69
2022/09/06 09:05:31;;;;;;;2.85;2.47;;;;;;;22.00;70.69;101389.66;5016320;28;20148;-67
2022/09/06 09:08:05;;;;;;;3.33;2.70;;;;;;;22.36;70.75;101394.88;5007072;28;20099;-68
2022/09/06 09:10:46;;;;;;;4.95;2.83;;;;;;;22.44;68.96;101394.88;5007458;28;20502;-67
2022/09/06 09:13:28;;;;;;;4.28;2.75;;;;;;;22.52;68.38;101392.09;5008176;28;20512;-69
2022/09/06 09:15:53;;;;;;;5.63;2.90;;;;;;;22.61;67.64;101393.78;5007941;28;20551;-68
2022/09/06 09:18:23;;;;;;;6.20;3.15;;;;;;;22.65;67.54;101380.44;5023083;28;20037;-68
2022/09/06 09:20:49;;;;;;;4.20;2.80;;;;;;;22.88;67.76;101375.00;5026890;28;20037;-68
2022/09/06 09:23:14;;;;;;;5.70;3.00;;;;;;;22.95;66.17;101375.22;5016861;28;20493;-68
2022/09/06 09:25:40;;;;;;;6.82;2.90;;;;;;;23.21;64.79;101367.44;5025368;28;20428;-68
2022/09/06 09:28:14;;;;;;;6.13;2.80;;;;;;;23.28;63.44;101371.22;5025325;28;20037;-68
2022/09/06 09:30:47;;;;;;;4.55;2.80;;;;;;;23.63;65.14;101386.47;5025966;28;20497;-68
2022/09/06 09:33:24;;;;;;;6.43;3.28;;;;;;;23.85;64.00;101382.00;5025631;28;20053;-68
2022/09/06 09:35:50;;;;;;;4.18;2.97;;;;;;;24.12;61.87;101388.91;5014335;28;20042;-68
2022/09/06 09:38:23;;;;;;;6.03;2.50;;;;;;;24.47;62.73;101380.97;5007591;28;20081;-71
2022/09/06 09:41:00;;;;;;;3.25;2.65;;;;;;;24.71;63.18;101384.53;5008335;28;20041;-69
2022/09/06 09:43:54;;;;;;;3.78;2.40;;;;;;;25.02;62.02;101390.81;5027054;28;20084;-68
2022/09/06 09:46:23;;;;;;;8.77;2.80;;;;;;;25.05;60.36;101387.66;5022940;28;20515;-68
2022/09/06 09:49:06;;;;;;;7.20;2.67;;;;;;;25.23;60.24;101375.25;5006999;28;20383;-69
2022/09/06 09:51:35;;;;;;;6.22;2.90;;;;;;;25.38;58.61;101376.97;5009682;28;20038;-68
2022/09/06 09:54:04;;;;;;;4.70;2.60;;;;;;;25.57;59.31;101385.75;5039302;28;20130;-68
2022/09/06 09:56:50;;;;;;;6.32;2.90;;;;;;;25.73;58.16;101376.28;5034745;28;20485;-69
2022/09/06 09:59:24;;;;;;;4.35;2.75;;;;;;;25.98;58.14;101368.44;5026869;28;20045;-69
2022/09/06 10:01:54;;;;;;;7.70;3.10;;;;;;;26.07;57.77;101370.88;5026016;28;20445;-70
2022/09/06 10:04:36;;;;;;;10.32;2.80;;;;;;;26.33;56.72;101372.16;5039899;28;20053;-70
2022/09/06 10:07:23;;;;;;;3.42;2.65;;;;;;;26.69;58.09;101369.25;5032180;28;20557;-69
2022/09/06 10:09:57;;;;;;;7.78;2.70;;;;;;;26.87;56.15;101374.31;5032548;28;20525;-70
2022/09/06 10:12:37;;;;;;;3.67;2.97;;;;;;;26.78;53.75;101375.56;5020332;28;20145;-68
2022/09/06 10:15:05;;;;;;;3.80;2.60;;;;;;;26.96;54.79;101390.69;5038449;28;20037;-71
2022/09/06 10:17:51;;;;;;;4.25;2.63;;;;;;;27.17;54.00;101388.91;5033011;28;20100;-68
2022/09/06 10:20:17;;;;;;;6.25;3.40;;;;;;;27.16;52.97;101389.97;5028116;28;20050;-69
2022/09/06 10:23:03;;;;;;;4.75;3.22;;;;;;;27.25;53.99;101390.66;5032415;28;20461;-71
2022/09/06 10:25:39;;;;;;;5.00;3.33;;;;;;;27.34;53.51;101395.00;5049833;28;20119;-69
2022/09/06 10:28:28;;;;;;;5.13;2.80;;;;;;;27.50;54.36;101397.44;5029472;28;20041;-69
2022/09/06 10:31:01;;;;;;;5.93;3.30;;;;;;;27.74;52.25;101398.81;5020473;28;20041;-69
2022/09/06 10:33:48;;;;;;;5.88;3.53;;;;;;;27.59;50.39;101393.38;5028769;28;20037;-70
2022/09/06 10:36:21;;;;;;;6.60;3.40;;;;;;;27.80;52.34;101391.56;5047805;28;20127;-69
2022/09/06 10:38:55;;;;;;;8.85;3.53;;;;;;;27.93;52.94;101386.84;5048927;28;20070;-68
2022/09/06 10:41:31;;;;;;;6.15;4.10;;;;;;;27.99;50.67;101375.88;5029292;28;20065;-68
2022/09/06 10:44:03;;;;;;;5.05;3.30;;;;;;;28.18;51.35;101387.09;5010052;28;20140;-68
2022/09/06 10:46:33;;;;;;;5.50;3.60;;;;;;;28.34;49.92;101393.31;5012292;28;20037;-71
2022/09/06 10:48:58;;;;;;;4.72;3.47;;;;;;;28.18;49.78;101381.50;5024826;28;20077;-68
2022/09/06 10:51:53;;;;;;;9.35;3.72;;;;;;;28.45;51.70;101382.38;5028708;28;20842;-68
2022/09/06 10:54:23;;;;;;;8.77;3.60;;;;;;;28.64;50.78;101382.59;5026633;28;20045;-68
2022/09/06 10:57:07;;;;;;;5.47;4.03;;;;;;;28.75;50.45;101378.25;5026675;28;20113;-69
2022/09/06 10:59:40;;;;;;;6.22;3.40;;;;;;;28.73;49.62;101373.75;5030277;28;20140;-72
2022/09/06 11:02:36;;;;;;;9.73;4.10;;;;;;;28.80;50.22;101373.72;5026282;28;20045;-68
2022/09/06 11:05:07;;;;;;;7.72;3.90;;;;;;;29.07;49.59;101370.88;5028966;28;20053;-68
2022/09/06 11:07:43;;;;;;;9.90;3.77;;;;;;;29.23;48.81;101385.25;5028610;28;20044;-71
2022/09/06 11:10:23;;;;;;;7.72;3.83;;;;;;;29.28;47.38;101378.97;5028071;28;20048;-69
2022/09/06 11:12:48;;;;;;;6.18;3.67;;;;;;;29.21;46.89;101389.38;5028666;28;20128;-68
2022/09/06 11:15:16;;;;;;;5.97;3.47;;;;;;;29.03;46.94;101397.63;5026931;28;20132;-68
2022/09/06 11:18:05;;;;;;;6.57;3.70;;;;;;;28.81;47.56;101388.56;5027535;28;20056;-68
2022/09/06 11:20:54;;;;;;;6.28;3.47;;;;;;;28.95;48.34;101393.97;5028217;28;20394;-68
2022/09/06 11:23:32;;;;;;;5.60;3.28;;;;;;;29.28;48.08;101404.22;5026145;28;20039;-68
2022/09/06 11:26:06;;;;;;;6.82;4.00;;;;;;;29.37;46.70;101402.88;5026990;28;20044;-68
2022/09/06 11:28:44;;;;;;;7.70;3.63;;;;;;;29.42;46.85;101411.47;5029005;28;20060;-69
2022/09/06 11:31:17;;;;;;;7.78;3.28;;;;;;;29.62;45.52;101404.97;5027747;28;20561;-68
2022/09/06 11:33:43;;;;;;;6.07;3.22;;;;;;;29.72;45.36;101403.41;5027005;28;20114;-68
2022/09/06 11:36:43;;;;;;;6.30;3.22;;;;;;;29.96;45.91;101404.56;5027569;28;20438;-67